sensor_id;sensor_type;location;lat;lon;timestamp;temperature;humidity
15815;DHT22;8008;50.024;8.172;2022-08-19T03:00:22;23.00;93.80
15815;DHT22;8008;50.024;8.172;2022-08-19T03:02:50;23.00;94.40
15815;DHT22;8008;50.024;8.172;2022-08-19T03:05:19;22.90;94.10
15815;DHT22;8008;50.024;8.172;2022-08-19T03:08:08;22.80;94.20
15815;DHT22;8008;50.024;8.172;2022-08-19T03:10:43;22.80;94.40
15815;DHT22;8008;50.024;8.172;2022-08-19T03:13:12;22.80;94.50
15815;DHT22;8008;50.024;8.172;2022-08-19T03:15:44;22.80;94.70
15815;DHT22;8008;50.024;8.172;2022-08-19T03:18:13;22.80;94.90
15815;DHT22;8008;50.024;8.172;2022-08-19T03:20:45;22.70;95.00
15815;DHT22;8008;50.024;8.172;2022-08-19T03:23:14;22.70;95.30
15815;DHT22;8008;50.024;8.172;2022-08-19T03:25:46;22.70;95.50
15815;DHT22;8008;50.024;8.172;2022-08-19T03:28:34;22.70;95.60
15815;DHT22;8008;50.024;8.172;2022-08-19T03:31:06;22.60;95.80
15815;DHT22;8008;50.024;8.172;2022-08-19T03:33:55;22.60;96.10
15815;DHT22;8008;50.024;8.172;2022-08-19T03:36:25;22.60;96.30
15815;DHT22;8008;50.024;8.172;2022-08-19T03:38:57;22.60;96.40
15815;DHT22;8008;50.024;8.172;2022-08-19T03:41:27;22.60;96.50
15815;DHT22;8008;50.024;8.172;2022-08-19T03:44:12;22.60;96.60
15815;DHT22;8008;50.024;8.172;2022-08-19T03:46:47;22.60;96.80
15815;DHT22;8008;50.024;8.172;2022-08-19T03:49:16;22.50;97.00
15815;DHT22;8008;50.024;8.172;2022-08-19T03:51:46;22.50;97.10
15815;DHT22;8008;50.024;8.172;2022-08-19T03:54:17;22.50;97.30
15815;DHT22;8008;50.024;8.172;2022-08-19T03:56:47;22.50;97.60
15815;DHT22;8008;50.024;8.172;2022-08-19T03:59:18;22.40;97.80
15815;DHT22;8008;50.024;8.172;2022-08-19T04:01:48;22.30;98.20
15815;DHT22;8008;50.024;8.172;2022-08-19T04:04:16;22.30;98.50
15815;DHT22;8008;50.024;8.172;2022-08-19T04:06:45;22.20;98.90
15815;DHT22;8008;50.024;8.172;2022-08-19T04:09:14;22.20;99.10
15815;DHT22;8008;50.024;8.172;2022-08-19T04:11:44;22.20;99.30
15815;DHT22;8008;50.024;8.172;2022-08-19T04:14:16;21.90;99.90
15815;DHT22;8008;50.024;8.172;2022-08-19T04:16:45;21.90;99.90
15815;DHT22;8008;50.024;8.172;2022-08-19T04:19:16;21.70;99.90
15815;DHT22;8008;50.024;8.172;2022-08-19T04:21:46;21.60;99.90
15815;DHT22;8008;50.024;8.172;2022-08-19T04:24:15;21.50;99.90
15815;DHT22;8008;50.024;8.172;2022-08-19T04:26:43;21.30;99.90
15815;DHT22;8008;50.024;8.172;2022-08-19T04:29:14;21.20;99.90
15815;DHT22;8008;50.024;8.172;2022-08-19T04:31:44;21.20;99.90
15815;DHT22;8008;50.024;8.172;2022-08-19T04:34:15;21.20;99.90
15815;DHT22;8008;50.024;8.172;2022-08-19T04:36:44;21.10;99.90
15815;DHT22;8008;50.024;8.172;2022-08-19T04:39:15;21.00;99.90
15815;DHT22;8008;50.024;8.172;2022-08-19T04:41:43;21.00;99.90
15815;DHT22;8008;50.024;8.172;2022-08-19T04:44:30;21.10;99.90
15815;DHT22;8008;50.024;8.172;2022-08-19T04:46:59;21.00;99.90
15815;DHT22;8008;50.024;8.172;2022-08-19T04:49:28;20.90;99.90
15815;DHT22;8008;50.024;8.172;2022-08-19T04:51:56;20.90;99.90
15815;DHT22;8008;50.024;8.172;2022-08-19T04:54:25;20.80;99.90
15815;DHT22;8008;50.024;8.172;2022-08-19T04:57:06;20.70;99.90
15815;DHT22;8008;50.024;8.172;2022-08-19T04:59:36;20.70;99.90
15815;DHT22;8008;50.024;8.172;2022-08-19T05:02:06;20.80;99.90
15815;DHT22;8008;50.024;8.172;2022-08-19T05:04:35;20.70;99.90
15815;DHT22;8008;50.024;8.172;2022-08-19T05:07:06;20.70;99.90
15815;DHT22;8008;50.024;8.172;2022-08-19T05:09:34;20.70;99.90
15815;DHT22;8008;50.024;8.172;2022-08-19T05:12:22;20.70;99.90
15815;DHT22;8008;50.024;8.172;2022-08-19T05:14:55;20.70;99.90
15815;DHT22;8008;50.024;8.172;2022-08-19T05:17:24;20.70;99.90
15815;DHT22;8008;50.024;8.172;2022-08-19T05:19:57;20.70;99.90
15815;DHT22;8008;50.024;8.172;2022-08-19T05:22:45;20.70;99.90
15815;DHT22;8008;50.024;8.172;2022-08-19T05:25:16;20.70;99.90
15815;DHT22;8008;50.024;8.172;2022-08-19T05:27:45;20.80;99.90
15815;DHT22;8008;50.024;8.172;2022-08-19T05:30:13;20.80;99.90
15815;DHT22;8008;50.024;8.172;2022-08-19T05:32:41;20.80;99.90
15815;DHT22;8008;50.024;8.172;2022-08-19T05:35:11;20.90;99.90
15815;DHT22;8008;50.024;8.172;2022-08-19T05:37:39;20.80;99.90
15815;DHT22;8008;50.024;8.172;2022-08-19T05:40:08;20.80;99.90
15815;DHT22;8008;50.024;8.172;2022-08-19T05:42:37;20.90;99.90
15815;DHT22;8008;50.024;8.172;2022-08-19T05:45:06;20.90;99.90
15815;DHT22;8008;50.024;8.172;2022-08-19T05:47:34;20.90;99.90
15815;DHT22;8008;50.024;8.172;2022-08-19T05:50:08;21.00;99.90
15815;DHT22;8008;50.024;8.172;2022-08-19T05:52:38;21.10;99.90
15815;DHT22;8008;50.024;8.172;2022-08-19T05:55:15;21.10;99.90
15815;DHT22;8008;50.024;8.172;2022-08-19T05:57:43;21.20;99.90
15815;DHT22;8008;50.024;8.172;2022-08-19T06:00:12;21.30;99.90
15815;DHT22;8008;50.024;8.172;2022-08-19T06:02:40;21.30;99.90
15815;DHT22;8008;50.024;8.172;2022-08-19T06:05:09;21.40;99.90
15815;DHT22;8008;50.024;8.172;2022-08-19T06:07:39;21.50;99.90
15815;DHT22;8008;50.024;8.172;2022-08-19T06:10:09;21.60;99.90
15815;DHT22;8008;50.024;8.172;2022-08-19T06:12:38;21.70;99.90
15815;DHT22;8008;50.024;8.172;2022-08-19T06:15:08;21.90;99.90
15815;DHT22;8008;50.024;8.172;2022-08-19T06:17:36;22.00;99.90
15815;DHT22;8008;50.024;8.172;2022-08-19T06:20:06;22.00;99.90
15815;DHT22;8008;50.024;8.172;2022-08-19T06:22:39;22.10;99.90
15815;DHT22;8008;50.024;8.172;2022-08-19T06:25:09;22.20;99.90
15815;DHT22;8008;50.024;8.172;2022-08-19T06:27:37;22.30;99.90
15815;DHT22;8008;50.024;8.172;2022-08-19T06:30:24;22.40;99.90
15815;DHT22;8008;50.024;8.172;2022-08-19T06:32:52;22.60;99.90
15815;DHT22;8008;50.024;8.172;2022-08-19T06:35:21;22.70;99.90
15815;DHT22;8008;50.024;8.172;2022-08-19T06:37:50;22.60;99.90
15815;DHT22;8008;50.024;8.172;2022-08-19T06:40:19;22.60;99.90
15815;DHT22;8008;50.024;8.172;2022-08-19T06:42:47;22.70;99.90
15815;DHT22;8008;50.024;8.172;2022-08-19T06:45:20;22.80;99.90
15815;DHT22;8008;50.024;8.172;2022-08-19T06:47:51;22.90;99.90
15815;DHT22;8008;50.024;8.172;2022-08-19T06:50:22;23.00;99.90
15815;DHT22;8008;50.024;8.172;2022-08-19T06:52:52;23.10;99.90
15815;DHT22;8008;50.024;8.172;2022-08-19T06:55:21;23.10;99.90
15815;DHT22;8008;50.024;8.172;2022-08-19T06:57:49;23.30;99.90
15815;DHT22;8008;50.024;8.172;2022-08-19T07:00:20;23.40;99.90
15815;DHT22;8008;50.024;8.172;2022-08-19T07:02:48;23.50;99.90
15815;DHT22;8008;50.024;8.172;2022-08-19T07:05:23;23.50;99.90
15815;DHT22;8008;50.024;8.172;2022-08-19T07:07:52;23.50;99.90
15815;DHT22;8008;50.024;8.172;2022-08-19T07:10:23;23.60;99.90
15815;DHT22;8008;50.024;8.172;2022-08-19T07:12:51;23.60;99.90
15815;DHT22;8008;50.024;8.172;2022-08-19T07:15:20;23.80;99.90
15815;DHT22;8008;50.024;8.172;2022-08-19T07:17:49;23.80;99.90
15815;DHT22;8008;50.024;8.172;2022-08-19T07:20:18;23.80;99.90
15815;DHT22;8008;50.024;8.172;2022-08-19T07:22:46;23.80;99.90
15815;DHT22;8008;50.024;8.172;2022-08-19T07:25:16;23.90;99.90
15815;DHT22;8008;50.024;8.172;2022-08-19T07:27:45;23.80;99.90
15815;DHT22;8008;50.024;8.172;2022-08-19T07:30:20;23.80;99.90
15815;DHT22;8008;50.024;8.172;2022-08-19T07:32:52;23.90;99.90
15815;DHT22;8008;50.024;8.172;2022-08-19T07:35:20;23.90;99.90
15815;DHT22;8008;50.024;8.172;2022-08-19T07:37:48;24.00;99.90
15815;DHT22;8008;50.024;8.172;2022-08-19T07:40:17;24.00;99.90
15815;DHT22;8008;50.024;8.172;2022-08-19T07:42:46;24.10;99.90
15815;DHT22;8008;50.024;8.172;2022-08-19T07:45:13;24.10;99.90
15815;DHT22;8008;50.024;8.172;2022-08-19T07:47:42;24.10;99.90
15815;DHT22;8008;50.024;8.172;2022-08-19T07:50:17;24.10;99.90
15815;DHT22;8008;50.024;8.172;2022-08-19T07:52:46;24.20;99.90
15815;DHT22;8008;50.024;8.172;2022-08-19T07:55:19;24.20;99.90
15815;DHT22;8008;50.024;8.172;2022-08-19T07:58:07;24.30;99.90
15815;DHT22;8008;50.024;8.172;2022-08-19T08:00:36;24.40;99.90
15815;DHT22;8008;50.024;8.172;2022-08-19T08:03:04;24.50;99.90
15815;DHT22;8008;50.024;8.172;2022-08-19T08:05:31;24.50;99.60
15815;DHT22;8008;50.024;8.172;2022-08-19T08:08:17;24.60;99.10
15815;DHT22;8008;50.024;8.172;2022-08-19T08:11:11;24.70;98.40
15815;DHT22;8008;50.024;8.172;2022-08-19T08:13:41;24.70;97.20
15815;DHT22;8008;50.024;8.172;2022-08-19T08:16:09;24.80;98.00
15815;DHT22;8008;50.024;8.172;2022-08-19T08:18:40;24.90;97.70
15815;DHT22;8008;50.024;8.172;2022-08-19T08:21:16;24.90;97.30
15815;DHT22;8008;50.024;8.172;2022-08-19T08:23:44;24.90;96.70
15815;DHT22;8008;50.024;8.172;2022-08-19T08:26:13;24.90;96.80
15815;DHT22;8008;50.024;8.172;2022-08-19T08:28:44;24.80;97.00
15815;DHT22;8008;50.024;8.172;2022-08-19T08:31:15;24.70;97.50
15815;DHT22;8008;50.024;8.172;2022-08-19T08:33:47;24.70;97.60
15815;DHT22;8008;50.024;8.172;2022-08-19T08:36:16;24.60;97.90
15815;DHT22;8008;50.024;8.172;2022-08-19T08:38:44;24.70;97.50
15815;DHT22;8008;50.024;8.172;2022-08-19T08:41:19;24.70;97.00
15815;DHT22;8008;50.024;8.172;2022-08-19T08:43:51;24.70;96.80
15815;DHT22;8008;50.024;8.172;2022-08-19T08:46:24;24.70;96.90
15815;DHT22;8008;50.024;8.172;2022-08-19T08:49:04;24.60;96.90
15815;DHT22;8008;50.024;8.172;2022-08-19T08:51:40;24.60;97.00
15815;DHT22;8008;50.024;8.172;2022-08-19T08:54:17;24.60;96.60
15815;DHT22;8008;50.024;8.172;2022-08-19T08:56:49;24.50;97.10
15815;DHT22;8008;50.024;8.172;2022-08-19T08:59:21;24.60;97.10
15815;DHT22;8008;50.024;8.172;2022-08-19T09:01:49;24.70;97.20
15815;DHT22;8008;50.024;8.172;2022-08-19T09:04:17;24.80;96.80
15815;DHT22;8008;50.024;8.172;2022-08-19T09:06:51;24.90;95.80
15815;DHT22;8008;50.024;8.172;2022-08-19T09:09:28;24.90;95.30
15815;DHT22;8008;50.024;8.172;2022-08-19T09:12:06;25.00;95.60
15815;DHT22;8008;50.024;8.172;2022-08-19T09:14:45;25.00;95.70
15815;DHT22;8008;50.024;8.172;2022-08-19T09:17:19;25.00;95.70
15815;DHT22;8008;50.024;8.172;2022-08-19T09:19:59;25.10;95.10
15815;DHT22;8008;50.024;8.172;2022-08-19T09:22:28;25.10;94.80
15815;DHT22;8008;50.024;8.172;2022-08-19T09:24:56;25.10;94.30
15815;DHT22;8008;50.024;8.172;2022-08-19T09:27:26;25.10;94.10
15815;DHT22;8008;50.024;8.172;2022-08-19T09:30:11;25.20;94.10
15815;DHT22;8008;50.024;8.172;2022-08-19T09:32:40;25.30;94.30
15815;DHT22;8008;50.024;8.172;2022-08-19T09:35:09;25.40;93.30
15815;DHT22;8008;50.024;8.172;2022-08-19T09:37:38;25.60;92.40
15815;DHT22;8008;50.024;8.172;2022-08-19T09:40:07;25.70;92.00
15815;DHT22;8008;50.024;8.172;2022-08-19T09:42:39;25.70;92.10
15815;DHT22;8008;50.024;8.172;2022-08-19T09:45:19;25.80;92.50
15815;DHT22;8008;50.024;8.172;2022-08-19T09:47:49;26.00;92.20
15815;DHT22;8008;50.024;8.172;2022-08-19T09:50:21;26.10;91.70
15815;DHT22;8008;50.024;8.172;2022-08-19T09:52:50;26.20;90.50
15815;DHT22;8008;50.024;8.172;2022-08-19T09:55:24;26.10;90.20
15815;DHT22;8008;50.024;8.172;2022-08-19T09:58:00;26.20;89.60
15815;DHT22;8008;50.024;8.172;2022-08-19T10:00:28;26.30;88.00
15815;DHT22;8008;50.024;8.172;2022-08-19T10:02:57;26.50;87.90
15815;DHT22;8008;50.024;8.172;2022-08-19T10:05:25;26.70;84.60
15815;DHT22;8008;50.024;8.172;2022-08-19T10:08:16;27.10;83.10
15815;DHT22;8008;50.024;8.172;2022-08-19T10:10:48;27.40;82.10
15815;DHT22;8008;50.024;8.172;2022-08-19T10:13:20;27.60;81.50
15815;DHT22;8008;50.024;8.172;2022-08-19T10:15:53;27.80;80.70
15815;DHT22;8008;50.024;8.172;2022-08-19T10:18:23;27.90;80.10
15815;DHT22;8008;50.024;8.172;2022-08-19T10:20:52;28.10;80.00
15815;DHT22;8008;50.024;8.172;2022-08-19T10:23:30;28.10;77.80
15815;DHT22;8008;50.024;8.172;2022-08-19T10:26:01;27.90;78.00
15815;DHT22;8008;50.024;8.172;2022-08-19T10:28:32;27.70;77.20
15815;DHT22;8008;50.024;8.172;2022-08-19T10:31:05;27.80;76.30
15815;DHT22;8008;50.024;8.172;2022-08-19T10:33:34;27.90;75.10
15815;DHT22;8008;50.024;8.172;2022-08-19T10:36:21;28.00;74.60
15815;DHT22;8008;50.024;8.172;2022-08-19T10:38:52;28.10;73.80
15815;DHT22;8008;50.024;8.172;2022-08-19T10:41:26;28.30;74.10
15815;DHT22;8008;50.024;8.172;2022-08-19T10:43:58;28.40;74.70
15815;DHT22;8008;50.024;8.172;2022-08-19T10:46:30;28.60;73.20
15815;DHT22;8008;50.024;8.172;2022-08-19T10:48:59;28.80;72.40
15815;DHT22;8008;50.024;8.172;2022-08-19T10:51:28;29.00;72.50
15815;DHT22;8008;50.024;8.172;2022-08-19T10:54:15;29.00;72.10
15815;DHT22;8008;50.024;8.172;2022-08-19T10:56:56;29.20;70.10
15815;DHT22;8008;50.024;8.172;2022-08-19T10:59:27;29.30;70.40
15815;DHT22;8008;50.024;8.172;2022-08-19T11:02:03;29.50;70.20
15815;DHT22;8008;50.024;8.172;2022-08-19T11:04:32;29.70;70.20
15815;DHT22;8008;50.024;8.172;2022-08-19T11:07:02;29.60;69.60
15815;DHT22;8008;50.024;8.172;2022-08-19T11:09:30;29.40;68.90
15815;DHT22;8008;50.024;8.172;2022-08-19T11:12:00;29.30;69.60
15815;DHT22;8008;50.024;8.172;2022-08-19T11:14:32;29.40;69.40
15815;DHT22;8008;50.024;8.172;2022-08-19T11:17:01;29.50;67.40
15815;DHT22;8008;50.024;8.172;2022-08-19T11:19:29;29.50;67.20
15815;DHT22;8008;50.024;8.172;2022-08-19T11:21:58;29.50;66.60
15815;DHT22;8008;50.024;8.172;2022-08-19T11:24:30;29.50;67.70
15815;DHT22;8008;50.024;8.172;2022-08-19T11:27:04;29.60;66.60
15815;DHT22;8008;50.024;8.172;2022-08-19T11:29:34;29.80;67.00
15815;DHT22;8008;50.024;8.172;2022-08-19T11:32:04;29.60;66.40
15815;DHT22;8008;50.024;8.172;2022-08-19T11:34:32;29.30;66.50
15815;DHT22;8008;50.024;8.172;2022-08-19T11:37:02;29.40;67.00
15815;DHT22;8008;50.024;8.172;2022-08-19T11:39:33;29.80;67.70
15815;DHT22;8008;50.024;8.172;2022-08-19T11:42:03;30.20;67.00
15815;DHT22;8008;50.024;8.172;2022-08-19T11:44:54;30.20;66.20
15815;DHT22;8008;50.024;8.172;2022-08-19T11:47:22;30.30;66.80
15815;DHT22;8008;50.024;8.172;2022-08-19T11:49:50;30.40;65.60
15815;DHT22;8008;50.024;8.172;2022-08-19T11:52:19;30.70;65.10
15815;DHT22;8008;50.024;8.172;2022-08-19T11:54:47;31.10;64.10
15815;DHT22;8008;50.024;8.172;2022-08-19T11:57:15;31.20;63.40
15815;DHT22;8008;50.024;8.172;2022-08-19T11:59:48;31.40;63.20
15815;DHT22;8008;50.024;8.172;2022-08-19T12:02:18;31.50;63.60
15815;DHT22;8008;50.024;8.172;2022-08-19T12:04:46;32.00;63.00
15815;DHT22;8008;50.024;8.172;2022-08-19T12:07:14;32.30;61.60
15815;DHT22;8008;50.024;8.172;2022-08-19T12:09:42;32.70;60.40
15815;DHT22;8008;50.024;8.172;2022-08-19T12:12:14;33.10;59.30
15815;DHT22;8008;50.024;8.172;2022-08-19T12:14:42;33.70;58.60
15815;DHT22;8008;50.024;8.172;2022-08-19T12:17:10;33.60;57.40
15815;DHT22;8008;50.024;8.172;2022-08-19T12:19:40;32.80;58.00
15815;DHT22;8008;50.024;8.172;2022-08-19T12:22:08;32.30;59.10
15815;DHT22;8008;50.024;8.172;2022-08-19T12:24:36;32.20;60.00
15815;DHT22;8008;50.024;8.172;2022-08-19T12:27:04;32.50;60.30
15815;DHT22;8008;50.024;8.172;2022-08-19T12:29:38;33.50;59.30
15815;DHT22;8008;50.024;8.172;2022-08-19T12:32:08;34.50;58.50
15815;DHT22;8008;50.024;8.172;2022-08-19T12:34:38;35.20;56.80
15815;DHT22;8008;50.024;8.172;2022-08-19T12:37:08;35.70;56.20
15815;DHT22;8008;50.024;8.172;2022-08-19T12:39:39;35.40;55.40
15815;DHT22;8008;50.024;8.172;2022-08-19T12:42:08;35.10;54.40
15815;DHT22;8008;50.024;8.172;2022-08-19T12:44:38;35.30;53.80
15815;DHT22;8008;50.024;8.172;2022-08-19T12:47:10;35.60;53.20
15815;DHT22;8008;50.024;8.172;2022-08-19T12:49:41;35.50;53.30
15815;DHT22;8008;50.024;8.172;2022-08-19T12:52:23;35.90;53.40
15815;DHT22;8008;50.024;8.172;2022-08-19T12:54:52;35.40;53.20
15815;DHT22;8008;50.024;8.172;2022-08-19T12:57:21;35.00;53.60
15815;DHT22;8008;50.024;8.172;2022-08-19T13:00:00;34.20;53.90
15815;DHT22;8008;50.024;8.172;2022-08-19T13:02:31;33.30;54.30
15815;DHT22;8008;50.024;8.172;2022-08-19T13:05:07;32.50;53.90
15815;DHT22;8008;50.024;8.172;2022-08-19T13:07:37;31.90;54.30
15815;DHT22;8008;50.024;8.172;2022-08-19T13:10:07;31.50;54.10
15815;DHT22;8008;50.024;8.172;2022-08-19T13:12:35;31.30;54.40
15815;DHT22;8008;50.024;8.172;2022-08-19T13:15:04;31.30;55.00
15815;DHT22;8008;50.024;8.172;2022-08-19T13:17:37;31.30;55.50
15815;DHT22;8008;50.024;8.172;2022-08-19T13:20:07;31.40;54.90
15815;DHT22;8008;50.024;8.172;2022-08-19T13:22:37;31.60;55.10
15815;DHT22;8008;50.024;8.172;2022-08-19T13:25:07;31.60;54.10
15815;DHT22;8008;50.024;8.172;2022-08-19T13:27:35;31.90;56.60
15815;DHT22;8008;50.024;8.172;2022-08-19T13:30:05;32.50;55.60
15815;DHT22;8008;50.024;8.172;2022-08-19T13:32:51;33.60;54.70
15815;DHT22;8008;50.024;8.172;2022-08-19T13:35:37;35.60;52.50
15815;DHT22;8008;50.024;8.172;2022-08-19T13:38:06;36.90;50.40
15815;DHT22;8008;50.024;8.172;2022-08-19T13:40:39;37.60;49.40
15815;DHT22;8008;50.024;8.172;2022-08-19T13:43:08;38.90;48.10
15815;DHT22;8008;50.024;8.172;2022-08-19T13:45:50;39.30;46.80
15815;DHT22;8008;50.024;8.172;2022-08-19T13:48:19;39.40;47.40
15815;DHT22;8008;50.024;8.172;2022-08-19T13:50:47;40.20;47.30
15815;DHT22;8008;50.024;8.172;2022-08-19T13:53:17;40.60;46.90
15815;DHT22;8008;50.024;8.172;2022-08-19T13:55:45;41.40;46.70
15815;DHT22;8008;50.024;8.172;2022-08-19T13:58:13;41.70;45.50
15815;DHT22;8008;50.024;8.172;2022-08-19T14:00:43;41.90;45.20
15815;DHT22;8008;50.024;8.172;2022-08-19T14:03:12;42.10;45.30
15815;DHT22;8008;50.024;8.172;2022-08-19T14:05:40;41.70;44.90
15815;DHT22;8008;50.024;8.172;2022-08-19T14:08:08;41.30;44.90
15815;DHT22;8008;50.024;8.172;2022-08-19T14:10:37;41.10;45.40
15815;DHT22;8008;50.024;8.172;2022-08-19T14:13:05;41.20;45.50
15815;DHT22;8008;50.024;8.172;2022-08-19T14:15:33;42.00;45.60
15815;DHT22;8008;50.024;8.172;2022-08-19T14:18:01;42.40;45.10
15815;DHT22;8008;50.024;8.172;2022-08-19T14:20:29;42.70;44.80
15815;DHT22;8008;50.024;8.172;2022-08-19T14:22:57;42.40;43.90
15815;DHT22;8008;50.024;8.172;2022-08-19T14:25:28;42.60;44.20
15815;DHT22;8008;50.024;8.172;2022-08-19T14:27:57;42.00;43.70
15815;DHT22;8008;50.024;8.172;2022-08-19T14:30:27;41.20;44.30
15815;DHT22;8008;50.024;8.172;2022-08-19T14:32:57;40.40;45.10
15815;DHT22;8008;50.024;8.172;2022-08-19T14:35:26;39.10;45.30
15815;DHT22;8008;50.024;8.172;2022-08-19T14:37:55;38.20;45.80
15815;DHT22;8008;50.024;8.172;2022-08-19T14:40:27;37.60;46.70
15815;DHT22;8008;50.024;8.172;2022-08-19T14:42:59;37.50;47.10
15815;DHT22;8008;50.024;8.172;2022-08-19T14:45:31;37.40;47.60
15815;DHT22;8008;50.024;8.172;2022-08-19T14:47:59;37.90;47.50
15815;DHT22;8008;50.024;8.172;2022-08-19T14:50:27;38.60;47.60
15815;DHT22;8008;50.024;8.172;2022-08-19T14:53:00;39.60;47.40
15815;DHT22;8008;50.024;8.172;2022-08-19T14:55:41;39.90;47.00
15815;DHT22;8008;50.024;8.172;2022-08-19T14:58:11;40.40;46.60
15815;DHT22;8008;50.024;8.172;2022-08-19T15:00:57;41.10;46.30
15815;DHT22;8008;50.024;8.172;2022-08-19T15:03:25;41.70;45.50
15815;DHT22;8008;50.024;8.172;2022-08-19T15:05:53;42.00;45.80
15815;DHT22;8008;50.024;8.172;2022-08-19T15:08:23;42.50;45.10
15815;DHT22;8008;50.024;8.172;2022-08-19T15:10:51;42.30;45.10
15815;DHT22;8008;50.024;8.172;2022-08-19T15:13:21;42.20;44.60
15815;DHT22;8008;50.024;8.172;2022-08-19T15:15:49;42.10;45.00
15815;DHT22;8008;50.024;8.172;2022-08-19T15:18:18;41.40;44.80
15815;DHT22;8008;50.024;8.172;2022-08-19T15:20:47;41.30;44.90
15815;DHT22;8008;50.024;8.172;2022-08-19T15:23:16;41.50;45.30
15815;DHT22;8008;50.024;8.172;2022-08-19T15:25:45;41.40;44.90
15815;DHT22;8008;50.024;8.172;2022-08-19T15:28:13;41.30;44.90
15815;DHT22;8008;50.024;8.172;2022-08-19T15:30:44;41.00;45.00
15815;DHT22;8008;50.024;8.172;2022-08-19T15:33:12;41.00;45.10
15815;DHT22;8008;50.024;8.172;2022-08-19T15:35:42;40.10;45.50
15815;DHT22;8008;50.024;8.172;2022-08-19T15:38:11;39.10;46.00
15815;DHT22;8008;50.024;8.172;2022-08-19T15:40:40;37.70;47.10
15815;DHT22;8008;50.024;8.172;2022-08-19T15:43:08;36.50;48.10
15815;DHT22;8008;50.024;8.172;2022-08-19T15:45:36;35.60;48.60
15815;DHT22;8008;50.024;8.172;2022-08-19T15:48:07;34.60;49.10
15815;DHT22;8008;50.024;8.172;2022-08-19T15:50:35;34.20;49.90
15815;DHT22;8008;50.024;8.172;2022-08-19T15:53:06;33.80;50.20
15815;DHT22;8008;50.024;8.172;2022-08-19T15:55:36;33.50;50.60
15815;DHT22;8008;50.024;8.172;2022-08-19T15:58:06;33.10;50.90
15815;DHT22;8008;50.024;8.172;2022-08-19T16:00:55;32.90;51.40
15815;DHT22;8008;50.024;8.172;2022-08-19T16:03:43;32.80;51.40
15815;DHT22;8008;50.024;8.172;2022-08-19T16:06:29;32.70;51.70
15815;DHT22;8008;50.024;8.172;2022-08-19T16:08:59;32.60;52.20
15815;DHT22;8008;50.024;8.172;2022-08-19T16:11:31;32.20;52.50
15815;DHT22;8008;50.024;8.172;2022-08-19T16:14:05;31.90;52.40
15815;DHT22;8008;50.024;8.172;2022-08-19T16:16:35;31.70;52.60
15815;DHT22;8008;50.024;8.172;2022-08-19T16:19:06;31.80;53.00
15815;DHT22;8008;50.024;8.172;2022-08-19T16:21:38;31.70;52.80
15815;DHT22;8008;50.024;8.172;2022-08-19T16:24:09;31.60;52.90
15815;DHT22;8008;50.024;8.172;2022-08-19T16:26:39;31.60;53.10
15815;DHT22;8008;50.024;8.172;2022-08-19T16:29:07;31.50;52.70
15815;DHT22;8008;50.024;8.172;2022-08-19T16:31:40;31.50;53.00
15815;DHT22;8008;50.024;8.172;2022-08-19T16:34:11;31.30;52.90
15815;DHT22;8008;50.024;8.172;2022-08-19T16:36:40;31.10;53.30
15815;DHT22;8008;50.024;8.172;2022-08-19T16:39:09;31.10;53.90
15815;DHT22;8008;50.024;8.172;2022-08-19T16:41:38;31.10;53.50
15815;DHT22;8008;50.024;8.172;2022-08-19T16:44:07;31.00;53.40
15815;DHT22;8008;50.024;8.172;2022-08-19T16:46:36;31.00;53.20
15815;DHT22;8008;50.024;8.172;2022-08-19T16:49:10;30.90;53.20
15815;DHT22;8008;50.024;8.172;2022-08-19T16:51:38;31.00;53.50
15815;DHT22;8008;50.024;8.172;2022-08-19T16:54:08;30.90;53.00
15815;DHT22;8008;50.024;8.172;2022-08-19T16:56:36;30.90;53.50
15815;DHT22;8008;50.024;8.172;2022-08-19T16:59:04;30.90;53.50
15815;DHT22;8008;50.024;8.172;2022-08-19T17:01:32;30.90;53.40
15815;DHT22;8008;50.024;8.172;2022-08-19T17:04:00;30.80;53.00
15815;DHT22;8008;50.024;8.172;2022-08-19T17:06:29;30.80;53.20
15815;DHT22;8008;50.024;8.172;2022-08-19T17:08:59;30.70;53.50
15815;DHT22;8008;50.024;8.172;2022-08-19T17:11:28;30.60;53.10
15815;DHT22;8008;50.024;8.172;2022-08-19T17:13:57;30.50;53.10
15815;DHT22;8008;50.024;8.172;2022-08-19T17:16:27;30.40;53.30
15815;DHT22;8008;50.024;8.172;2022-08-19T17:18:57;30.40;53.50
15815;DHT22;8008;50.024;8.172;2022-08-19T17:21:27;30.40;53.80
15815;DHT22;8008;50.024;8.172;2022-08-19T17:23:57;30.30;53.80
15815;DHT22;8008;50.024;8.172;2022-08-19T17:26:26;30.20;53.80
15815;DHT22;8008;50.024;8.172;2022-08-19T17:28:56;30.10;53.80
15815;DHT22;8008;50.024;8.172;2022-08-19T17:31:26;30.10;53.70
15815;DHT22;8008;50.024;8.172;2022-08-19T17:33:54;30.00;53.50
15815;DHT22;8008;50.024;8.172;2022-08-19T17:36:24;30.00;54.00
15815;DHT22;8008;50.024;8.172;2022-08-19T17:38:58;30.00;54.30
15815;DHT22;8008;50.024;8.172;2022-08-19T17:41:27;29.90;54.10
15815;DHT22;8008;50.024;8.172;2022-08-19T17:43:56;29.70;54.30
15815;DHT22;8008;50.024;8.172;2022-08-19T17:46:24;29.60;54.70
15815;DHT22;8008;50.024;8.172;2022-08-19T17:48:53;29.50;54.80
15815;DHT22;8008;50.024;8.172;2022-08-19T17:51:35;29.50;55.10
15815;DHT22;8008;50.024;8.172;2022-08-19T17:54:08;29.40;54.90
15815;DHT22;8008;50.024;8.172;2022-08-19T17:56:36;29.30;54.90
15815;DHT22;8008;50.024;8.172;2022-08-19T17:59:04;29.30;55.30
15815;DHT22;8008;50.024;8.172;2022-08-19T18:01:40;29.20;55.50
15815;DHT22;8008;50.024;8.172;2022-08-19T18:04:21;29.20;55.80
15815;DHT22;8008;50.024;8.172;2022-08-19T18:06:49;29.10;56.10
15815;DHT22;8008;50.024;8.172;2022-08-19T18:09:23;29.00;56.10
15815;DHT22;8008;50.024;8.172;2022-08-19T18:11:53;28.90;56.40
15815;DHT22;8008;50.024;8.172;2022-08-19T18:14:21;28.70;56.50
15815;DHT22;8008;50.024;8.172;2022-08-19T18:17:01;28.70;56.70
15815;DHT22;8008;50.024;8.172;2022-08-19T18:19:31;28.60;56.90
15815;DHT22;8008;50.024;8.172;2022-08-19T18:22:06;28.60;56.80
15815;DHT22;8008;50.024;8.172;2022-08-19T18:24:38;28.50;57.10
15815;DHT22;8008;50.024;8.172;2022-08-19T18:27:06;28.40;57.00
15815;DHT22;8008;50.024;8.172;2022-08-19T18:29:34;28.40;57.40
15815;DHT22;8008;50.024;8.172;2022-08-19T18:32:05;28.30;57.30
15815;DHT22;8008;50.024;8.172;2022-08-19T18:34:38;28.10;57.00
15815;DHT22;8008;50.024;8.172;2022-08-19T18:37:06;28.10;57.10
15815;DHT22;8008;50.024;8.172;2022-08-19T18:39:34;28.00;57.10
15815;DHT22;8008;50.024;8.172;2022-08-19T18:42:21;27.80;57.30
15815;DHT22;8008;50.024;8.172;2022-08-19T18:45:07;27.80;57.50
15815;DHT22;8008;50.024;8.172;2022-08-19T18:47:53;27.70;57.70
15815;DHT22;8008;50.024;8.172;2022-08-19T18:50:54;27.60;58.10
15815;DHT22;8008;50.024;8.172;2022-08-19T18:53:22;27.60;58.10
15815;DHT22;8008;50.024;8.172;2022-08-19T18:55:50;27.60;58.20
15815;DHT22;8008;50.024;8.172;2022-08-19T18:58:22;27.50;58.30
15815;DHT22;8008;50.024;8.172;2022-08-19T19:00:52;27.40;58.30
15815;DHT22;8008;50.024;8.172;2022-08-19T19:03:23;27.30;58.30
15815;DHT22;8008;50.024;8.172;2022-08-19T19:05:51;27.30;58.40
15815;DHT22;8008;50.024;8.172;2022-08-19T19:08:19;27.20;58.50
15815;DHT22;8008;50.024;8.172;2022-08-19T19:10:54;27.20;58.70